createdAt,value
2022-10-21T00:00:27.966Z,100708.38
2022-10-21T00:02:54.689Z,100701.25
2022-10-21T00:05:21.243Z,100701.25
2022-10-21T00:07:47.754Z,100693.94
2022-10-21T00:10:14.459Z,100701.25
2022-10-21T00:12:41.128Z,100691.91
2022-10-21T00:15:10.683Z,100696.66
2022-10-21T00:17:41.769Z,100695.97
2022-10-21T00:20:11.147Z,100694.09
2022-10-21T00:22:37.956Z,100693.78
2022-10-21T00:25:10.990Z,100692.94
2022-10-21T00:27:37.844Z,100693.94
2022-10-21T00:30:07.302Z,100694.97
2022-10-21T00:32:34.460Z,100696.97
2022-10-21T00:35:01.184Z,100696.97
2022-10-21T00:37:30.353Z,100695.28
2022-10-21T00:39:57.308Z,100686.13
2022-10-21T00:42:35.184Z,100686.13
2022-10-21T00:45:05.583Z,100694.25
2022-10-21T00:47:35.931Z,100691.72
2022-10-21T00:50:04.448Z,100697.47
2022-10-21T00:52:34.284Z,100693.03
2022-10-21T00:55:04.806Z,100691.34
2022-10-21T00:57:34.589Z,100692.34
2022-10-21T01:00:02.356Z,100691.34
2022-10-21T01:02:30.085Z,100681.47
2022-10-21T01:05:02.332Z,100677.91
2022-10-21T01:07:29.061Z,100677.22
2022-10-21T01:09:55.526Z,100681.81
2022-10-21T01:12:35.291Z,100677.38
2022-10-21T01:15:21.569Z,100675.53
2022-10-21T01:18:05.053Z,100675.34
2022-10-21T01:20:56.356Z,100661.78
2022-10-21T01:24:15.556Z,100661.94
2022-10-21T01:26:47.763Z,100661.06
2022-10-21T01:29:45.397Z,100658.84
2022-10-21T01:32:23.829Z,100653.75
2022-10-21T01:34:50.509Z,100647.44
2022-10-21T01:37:25.525Z,100643.03
2022-10-21T01:39:55.716Z,100632.00
2022-10-21T01:42:39.656Z,100634.56
2022-10-21T01:45:24.751Z,100624.53
2022-10-21T01:47:56.005Z,100629.13
2022-10-21T01:50:28.593Z,100624.00
2022-10-21T01:52:59.821Z,100625.03
2022-10-21T01:55:31.527Z,100621.78
2022-10-21T01:58:13.756Z,100603.25
2022-10-21T02:00:41.756Z,100599.69
2022-10-21T02:03:11.765Z,100596.97
2022-10-21T02:05:40.262Z,100593.41
2022-10-21T02:08:07.393Z,100590.16
2022-10-21T02:10:39.163Z,100592.88
2022-10-21T02:13:10.061Z,100586.59
2022-10-21T02:15:39.200Z,100584.88
2022-10-21T02:18:08.410Z,100584.03
2022-10-21T02:20:42.288Z,100586.91
2022-10-21T02:23:13.086Z,100586.19
2022-10-21T02:25:43.798Z,100586.34
2022-10-21T02:28:12.182Z,100584.81
2022-10-21T02:30:46.922Z,100572.25
2022-10-21T02:33:23.560Z,100573.41
2022-10-21T02:36:05.140Z,100569.16
2022-10-21T02:38:57.155Z,100565.06
2022-10-21T02:41:26.757Z,100571.34
2022-10-21T02:44:11.750Z,100569.94
2022-10-21T02:46:42.444Z,100582.38
2022-10-21T02:49:09.363Z,100576.94
2022-10-21T02:51:36.117Z,100574.34
2022-10-21T02:54:12.605Z,100578.78
2022-10-21T02:56:39.143Z,100579.78
2022-10-21T02:59:05.704Z,100580.78
2022-10-21T03:01:32.209Z,100580.25
2022-10-21T03:04:00.675Z,100574.16
2022-10-21T03:06:27.203Z,100574.16
2022-10-21T03:08:53.845Z,100573.28
2022-10-21T03:11:20.378Z,100566.00
2022-10-21T03:13:46.837Z,100563.28
2022-10-21T03:16:13.542Z,100570.41
2022-10-21T03:18:40.075Z,100556.00
2022-10-21T03:21:06.655Z,100562.44
2022-10-21T03:23:33.697Z,100562.44
2022-10-21T03:26:00.162Z,100565.31
2022-10-21T03:28:26.628Z,100571.75
2022-10-21T03:30:54.305Z,100568.34
2022-10-21T03:33:20.761Z,100567.66
2022-10-21T03:35:47.597Z,100568.66
2022-10-21T03:38:14.075Z,100561.53
2022-10-21T03:40:40.529Z,100564.25
2022-10-21T03:43:07.049Z,100565.25
2022-10-21T03:45:35.581Z,100568.28
2022-10-21T03:48:02.166Z,100572.34
2022-10-21T03:50:28.659Z,100564.50
2022-10-21T03:52:55.366Z,100571.28
2022-10-21T03:55:25.176Z,100566.31
2022-10-21T03:57:52.884Z,100561.38
2022-10-21T04:00:20.114Z,100562.53
2022-10-21T04:02:46.906Z,100558.81
2022-10-21T04:05:13.582Z,100558.13
2022-10-21T04:07:40.114Z,100552.16
2022-10-21T04:10:07.520Z,100553.34
2022-10-21T04:12:34.049Z,100548.22
2022-10-21T04:15:01.553Z,100554.81
2022-10-21T04:17:28.112Z,100557.66
2022-10-21T04:19:54.661Z,100554.09
2022-10-21T04:22:21.169Z,100547.97
2022-10-21T04:24:50.507Z,100552.72
2022-10-21T04:27:17.013Z,100555.56
2022-10-21T04:29:43.535Z,100565.56
2022-10-21T04:32:10.301Z,100547.59
2022-10-21T04:34:37.506Z,100554.03
2022-10-21T04:37:05.193Z,100550.47
2022-10-21T04:39:32.114Z,100561.16
2022-10-21T04:41:58.770Z,100553.19
2022-10-21T04:44:26.333Z,100556.91
2022-10-21T04:46:52.940Z,100559.06
2022-10-21T04:49:19.494Z,100553.97
2022-10-21T04:51:46.010Z,100557.00
2022-10-21T04:54:16.658Z,100552.72
2022-10-21T04:56:43.154Z,100552.19
2022-10-21T04:59:09.791Z,100558.78
2022-10-21T05:01:36.634Z,100564.38
2022-10-21T05:04:07.730Z,100556.22
2022-10-21T05:06:34.250Z,100557.78
2022-10-21T05:09:00.830Z,100557.47
2022-10-21T05:11:27.433Z,100554.59
2022-10-21T05:14:01.397Z,100555.97
2022-10-21T05:16:27.942Z,100555.81
2022-10-21T05:18:54.401Z,100547.69
2022-10-21T05:21:20.896Z,100543.97
2022-10-21T05:23:47.632Z,100542.97
2022-10-21T05:26:15.791Z,100541.78
2022-10-21T05:28:42.258Z,100534.34
2022-10-21T05:31:08.721Z,100535.19
2022-10-21T05:33:35.199Z,100531.63
2022-10-21T05:36:07.799Z,100524.34
2022-10-21T05:38:35.178Z,100519.94
2022-10-21T05:41:01.787Z,100519.09
2022-10-21T05:43:28.266Z,100520.94
2022-10-21T05:45:54.825Z,100527.06
2022-10-21T05:48:21.433Z,100524.19
2022-10-21T05:50:51.554Z,100524.88
2022-10-21T05:53:18.052Z,100526.59
2022-10-21T05:55:44.528Z,100532.00
2022-10-21T05:58:11.047Z,100522.16
2022-10-21T06:00:37.616Z,100518.75
2022-10-21T06:03:04.090Z,100516.06
2022-10-21T06:05:31.722Z,100500.78
2022-10-21T06:07:58.192Z,100512.66
2022-10-21T06:10:28.246Z,100516.53
2022-10-21T06:12:55.923Z,100512.28
2022-10-21T06:15:26.830Z,100521.41
2022-10-21T06:17:53.348Z,100514.75
2022-10-21T06:20:20.045Z,100513.38
2022-10-21T06:22:46.505Z,100502.84
2022-10-21T06:25:13.103Z,100517.25
2022-10-21T06:27:39.867Z,100512.84
2022-10-21T06:30:07.195Z,100519.44
2022-10-21T06:32:33.683Z,100518.72
2022-10-21T06:35:00.328Z,100518.72
2022-10-21T06:37:26.878Z,100519.59
2022-10-21T06:39:53.349Z,100522.13
2022-10-21T06:42:20.121Z,100523.69
2022-10-21T06:44:52.731Z,100535.22
2022-10-21T06:47:20.950Z,100539.63
2022-10-21T06:49:47.501Z,100536.94
2022-10-21T06:52:14.094Z,100537.09
2022-10-21T06:54:44.726Z,100544.38
2022-10-21T06:57:11.207Z,100540.34
2022-10-21T06:59:37.680Z,100547.47
2022-10-21T07:02:04.307Z,100554.59
2022-10-21T07:04:31.454Z,100561.72
2022-10-21T07:06:58.194Z,100566.84
2022-10-21T07:09:24.753Z,100569.38
2022-10-21T07:11:51.297Z,100572.63
2022-10-21T07:14:19.010Z,100566.91
2022-10-21T07:16:45.525Z,100578.28
2022-10-21T07:19:11.972Z,100586.97
2022-10-21T07:21:38.552Z,100592.06
2022-10-21T07:24:05.690Z,100592.66
2022-10-21T07:26:34.204Z,100600.47
2022-10-21T07:29:01.024Z,100601.16
2022-10-21T07:31:30.893Z,100610.00
2022-10-21T07:34:00.991Z,100610.53
2022-10-21T07:36:30.157Z,100613.78
2022-10-21T07:39:00.730Z,100596.19
2022-10-21T07:41:31.239Z,100596.72
2022-10-21T07:44:07.132Z,100599.13
2022-10-21T07:46:34.730Z,100596.78
2022-10-21T07:49:01.242Z,100591.03
2022-10-21T07:51:30.168Z,100599.69
2022-10-21T07:54:02.508Z,100586.66
2022-10-21T07:56:32.371Z,100581.59
2022-10-21T07:58:59.833Z,100582.97
2022-10-21T08:01:26.636Z,100582.50
2022-10-21T08:04:10.158Z,100592.06
2022-10-21T08:06:37.154Z,100587.00
2022-10-21T08:09:05.081Z,100593.81
2022-10-21T08:11:33.480Z,100588.03
2022-10-21T08:14:08.162Z,100596.75
2022-10-21T08:16:35.160Z,100587.28
2022-10-21T08:19:02.845Z,100587.63
2022-10-21T08:21:31.152Z,100596.16
2022-10-21T08:24:06.882Z,100592.94
2022-10-21T08:26:33.477Z,100588.72
2022-10-21T08:29:01.631Z,100590.09
2022-10-21T08:31:28.101Z,100589.75
2022-10-21T08:34:01.095Z,100590.28
2022-10-21T08:36:27.630Z,100602.53
2022-10-21T08:38:55.037Z,100592.19
2022-10-21T08:41:43.759Z,100596.09
2022-10-21T08:44:26.184Z,100597.31
2022-10-21T08:47:20.687Z,100599.69
2022-10-21T08:49:53.101Z,100598.34
2022-10-21T08:52:23.598Z,100599.19
2022-10-21T08:54:57.617Z,100614.16
2022-10-21T08:57:24.524Z,100612.66
2022-10-21T08:59:51.624Z,100609.75
2022-10-21T09:02:32.351Z,100605.03
2022-10-21T09:05:27.869Z,100607.75
2022-10-21T09:08:08.760Z,100607.59
2022-10-21T09:11:01.261Z,100613.91
2022-10-21T09:14:02.046Z,100609.16
2022-10-21T09:16:50.571Z,100608.84
2022-10-21T09:19:32.369Z,100605.94
2022-10-21T09:22:34.987Z,100618.53
2022-10-21T09:25:35.029Z,100629.94
2022-10-21T09:28:11.957Z,100626.69
2022-10-21T09:30:40.667Z,100619.22
2022-10-21T09:33:35.284Z,100619.22
2022-10-21T09:36:30.037Z,100620.59
2022-10-21T09:39:13.071Z,100622.81
2022-10-21T09:41:44.201Z,100635.06
2022-10-21T09:44:16.743Z,100623.66
2022-10-21T09:46:47.957Z,100622.31
2022-10-21T09:52:21.065Z,100623.69
2022-10-21T09:54:49.073Z,100617.72
2022-10-21T09:57:26.161Z,100623.34
2022-10-21T10:00:00.300Z,100625.38
2022-10-21T10:02:38.888Z,100610.09
2022-10-21T10:05:33.461Z,100627.25
2022-10-21T10:07:59.918Z,100623.84
2022-10-21T10:10:32.572Z,100621.31
2022-10-21T10:13:03.216Z,100633.41
2022-10-21T10:15:36.763Z,100629.13
2022-10-21T10:18:04.507Z,100636.63
2022-10-21T10:20:30.994Z,100638.81
2022-10-21T10:22:58.266Z,100643.06
2022-10-21T10:25:49.443Z,100636.41
2022-10-21T10:28:23.563Z,100637.59
2022-10-21T10:30:54.743Z,100639.97
2022-10-21T10:33:21.646Z,100643.19
2022-10-21T10:35:55.206Z,100649.81
2022-10-21T10:38:34.006Z,100653.94
2022-10-21T10:41:19.067Z,100652.56
2022-10-21T10:46:37.152Z,100650.97
2022-10-21T10:49:21.311Z,100661.19
2022-10-21T10:52:08.944Z,100650.41
2022-10-21T10:54:38.698Z,100653.50
2022-10-21T10:57:34.363Z,100647.31
2022-10-21T11:00:22.141Z,100645.41
2022-10-21T11:02:57.128Z,100649.97
2022-10-21T11:05:51.822Z,100647.19
2022-10-21T11:08:33.350Z,100645.09
2022-10-21T11:11:04.431Z,100636.88
2022-10-21T11:13:35.490Z,100639.72
2022-10-21T11:16:26.995Z,100643.59
2022-10-21T11:19:20.943Z,100630.91
2022-10-21T11:21:55.697Z,100633.94
2022-10-21T11:24:28.143Z,100628.63
2022-10-21T11:27:46.874Z,100623.94
2022-10-21T11:30:19.696Z,100617.69
2022-10-21T11:32:52.012Z,100617.06
2022-10-21T11:35:33.499Z,100616.06
2022-10-21T11:38:15.160Z,100612.94
2022-10-21T11:41:09.168Z,100618.72
2022-10-21T11:44:01.406Z,100611.84
2022-10-21T11:46:49.186Z,100609.09
2022-10-21T11:49:53.647Z,100603.78
2022-10-21T11:52:58.011Z,100609.22
2022-10-21T11:55:28.159Z,100613.75
2022-10-21T11:58:02.260Z,100609.97
2022-10-21T12:00:39.242Z,100610.41
2022-10-21T12:03:29.242Z,100615.13
2022-10-21T12:06:04.721Z,100626.25
2022-10-21T12:08:43.090Z,100616.25
2022-10-21T12:11:46.418Z,100619.75
2022-10-21T12:14:38.144Z,100612.09
2022-10-21T12:17:14.071Z,100603.38
2022-10-21T12:19:41.542Z,100597.94
2022-10-21T12:22:11.097Z,100603.44
2022-10-21T12:24:53.466Z,100591.91
2022-10-21T12:27:43.974Z,100580.53
2022-10-21T12:30:23.474Z,100587.91
2022-10-21T12:33:37.503Z,100584.34
2022-10-21T12:36:22.600Z,100592.75
2022-10-21T12:38:49.156Z,100594.06
2022-10-21T12:41:24.518Z,100592.59
2022-10-21T12:44:03.719Z,100592.41
2022-10-21T12:46:39.113Z,100589.44
2022-10-21T12:49:19.275Z,100589.00
2022-10-21T12:51:58.562Z,100588.78
2022-10-21T12:54:30.956Z,100602.59
2022-10-21T12:57:04.299Z,100596.88
2022-10-21T12:59:37.024Z,100594.34
2022-10-21T13:02:06.685Z,100609.50
2022-10-21T13:04:34.372Z,100607.16
2022-10-21T13:07:01.644Z,100605.84
2022-10-21T13:09:35.723Z,100601.59
2022-10-21T13:12:24.055Z,100606.06
2022-10-21T13:14:59.085Z,100591.66
2022-10-21T13:17:29.777Z,100584.69
2022-10-21T13:20:22.183Z,100589.53
2022-10-21T13:23:02.013Z,100594.59
2022-10-21T13:25:32.919Z,100590.47
2022-10-21T13:28:14.693Z,100583.94
2022-10-21T13:30:50.210Z,100594.50
2022-10-21T13:33:20.511Z,100598.94
2022-10-21T13:35:51.490Z,100599.78
2022-10-21T13:38:25.356Z,100606.09
2022-10-21T13:40:56.461Z,100598.94
2022-10-21T13:43:29.281Z,100604.59
2022-10-21T13:46:39.180Z,100610.28
2022-10-21T13:49:29.301Z,100614.53
2022-10-21T13:51:56.150Z,100619.38
2022-10-21T13:54:22.921Z,100618.03
2022-10-21T13:56:49.481Z,100611.06
2022-10-21T13:59:42.302Z,100615.25
2022-10-21T14:02:23.010Z,100608.91
2022-10-21T14:04:50.618Z,100612.03
2022-10-21T14:07:19.323Z,100608.00
2022-10-21T14:09:52.632Z,100613.28
2022-10-21T14:12:22.099Z,100612.03
2022-10-21T14:14:53.995Z,100601.34
2022-10-21T14:17:23.629Z,100607.34
2022-10-21T14:19:55.811Z,100609.09
2022-10-21T14:22:26.595Z,100615.06
2022-10-21T14:25:01.836Z,100605.47
2022-10-21T14:27:31.581Z,100604.66
2022-10-21T14:30:01.226Z,100611.44
2022-10-21T14:32:28.010Z,100605.75
2022-10-21T14:35:06.996Z,100608.50
2022-10-21T14:37:43.237Z,100601.09
2022-10-21T14:40:32.629Z,100597.72
2022-10-21T14:43:04.443Z,100605.31
2022-10-21T14:45:34.582Z,100608.00
2022-10-21T14:48:26.364Z,100607.97
2022-10-21T14:50:59.735Z,100612.31
2022-10-21T14:53:28.519Z,100610.38
2022-10-21T14:55:58.910Z,100621.31
2022-10-21T14:58:31.590Z,100625.88
2022-10-21T15:01:03.212Z,100624.97
2022-10-21T15:03:45.714Z,100627.19
2022-10-21T15:06:18.511Z,100632.41
2022-10-21T15:08:56.995Z,100633.00
2022-10-21T15:11:26.266Z,100635.28
2022-10-21T15:14:07.025Z,100638.44
2022-10-21T15:19:08.689Z,100640.72
2022-10-21T15:21:53.830Z,100630.16
2022-10-21T15:24:28.730Z,100633.69
2022-10-21T15:26:59.492Z,100626.69
2022-10-21T15:29:33.857Z,100617.34
2022-10-21T15:32:01.094Z,100626.78
2022-10-21T15:34:28.404Z,100623.78
2022-10-21T15:36:55.221Z,100617.19
2022-10-21T15:39:22.013Z,100611.28
2022-10-21T15:41:53.617Z,100615.25
2022-10-21T15:44:28.103Z,100613.53
2022-10-21T15:47:00.397Z,100612.91
2022-10-21T15:49:33.787Z,100601.84
2022-10-21T15:52:00.552Z,100606.00
2022-10-21T15:54:31.603Z,100614.81
2022-10-21T15:57:00.526Z,100614.34
2022-10-21T15:59:32.474Z,100614.91
2022-10-21T16:02:00.470Z,100608.31
2022-10-21T16:04:31.249Z,100615.41
2022-10-21T16:06:57.723Z,100608.16
2022-10-21T16:09:29.023Z,100603.66
2022-10-21T16:12:00.175Z,100611.75
2022-10-21T16:14:30.800Z,100611.66
2022-10-21T16:16:58.661Z,100612.59
2022-10-21T16:19:25.642Z,100610.63
2022-10-21T16:21:52.203Z,100620.22
2022-10-21T16:24:18.856Z,100620.78
2022-10-21T16:26:48.089Z,100619.47
2022-10-21T16:29:23.539Z,100617.66
2022-10-21T16:31:50.581Z,100621.16
2022-10-21T16:34:19.657Z,100632.81
2022-10-21T16:36:46.391Z,100628.78
2022-10-21T16:39:16.712Z,100632.44
2022-10-21T16:41:43.243Z,100639.66
2022-10-21T16:44:15.078Z,100642.25
2022-10-21T16:46:55.431Z,100648.66
2022-10-21T16:49:24.867Z,100644.78
2022-10-21T16:51:55.194Z,100641.25
2022-10-21T16:54:25.609Z,100643.00
2022-10-21T16:56:55.043Z,100643.34
2022-10-21T16:59:22.647Z,100637.41
2022-10-21T17:01:49.141Z,100647.66
2022-10-21T17:04:17.887Z,100650.94
2022-10-21T17:06:44.400Z,100653.38
2022-10-21T17:09:10.976Z,100649.47
2022-10-21T17:11:40.095Z,100653.78
2022-10-21T17:14:25.467Z,100651.94
2022-10-21T17:16:52.006Z,100661.31
2022-10-21T17:19:18.537Z,100671.06
2022-10-21T17:21:45.530Z,100667.84
2022-10-21T17:24:16.395Z,100673.19
2022-10-21T17:26:43.491Z,100679.34
2022-10-21T17:29:10.818Z,100670.84
2022-10-21T17:31:38.625Z,100667.63
2022-10-21T17:34:13.167Z,100678.88
2022-10-21T17:36:39.681Z,100685.38
2022-10-21T17:39:06.174Z,100684.69
2022-10-21T17:41:32.697Z,100690.47
2022-10-21T17:44:10.323Z,100694.75
2022-10-21T17:46:36.900Z,100696.81
2022-10-21T17:49:03.537Z,100701.59
2022-10-21T17:51:30.281Z,100698.38
2022-10-21T17:54:01.302Z,100702.47
2022-10-21T17:56:27.814Z,100702.31
2022-10-21T17:58:56.127Z,100699.56
2022-10-21T18:01:24.502Z,100692.78
2022-10-21T18:03:52.082Z,100692.28
2022-10-21T18:06:19.183Z,100701.63
2022-10-21T18:08:46.017Z,100703.69
2022-10-21T18:11:14.920Z,100703.88
2022-10-21T18:13:42.518Z,100701.31
2022-10-21T18:16:14.246Z,100705.06
2022-10-21T18:21:11.869Z,100699.97
2022-10-21T18:23:40.653Z,100708.31
2022-10-21T18:26:10.802Z,100707.78
2022-10-21T18:28:37.442Z,100712.56
2022-10-21T18:31:05.065Z,100718.88
2022-10-21T18:33:32.064Z,100718.88
2022-10-21T18:36:13.469Z,100725.50
2022-10-21T18:38:40.376Z,100730.97
2022-10-21T18:41:19.491Z,100733.84
2022-10-21T18:43:53.043Z,100724.16
2022-10-21T18:46:20.595Z,100730.44
2022-10-21T18:48:47.593Z,100730.28
2022-10-21T18:51:19.022Z,100729.59
2022-10-21T18:53:50.072Z,100730.63
2022-10-21T18:56:21.770Z,100728.06
2022-10-21T18:58:48.740Z,100736.41
2022-10-21T19:01:16.001Z,100737.44
2022-10-21T19:03:42.897Z,100735.75
2022-10-21T19:06:40.518Z,100743.22
2022-10-21T19:09:19.685Z,100736.06
2022-10-21T19:11:47.134Z,100734.53
2022-10-21T19:14:16.027Z,100735.75
2022-10-21T19:16:44.629Z,100739.47
2022-10-21T19:19:12.145Z,100734.03
2022-10-21T19:21:38.752Z,100732.34
2022-10-21T19:24:30.754Z,100730.09
2022-10-21T19:26:58.809Z,100732.97
2022-10-21T19:29:26.181Z,100728.72
2022-10-21T19:31:52.715Z,100727.19
2022-10-21T19:34:26.164Z,100729.91
2022-10-21T19:36:52.681Z,100731.78
2022-10-21T19:39:19.515Z,100731.94
2022-10-21T19:41:46.798Z,100725.81
2022-10-21T19:44:14.468Z,100728.53
2022-10-21T19:46:41.013Z,100728.88
2022-10-21T19:49:09.138Z,100728.19
2022-10-21T19:51:36.727Z,100726.50
2022-10-21T19:54:09.186Z,100730.25
2022-10-21T19:56:35.861Z,100727.69
2022-10-21T19:59:02.951Z,100731.56
2022-10-21T20:01:30.278Z,100737.88
2022-10-21T20:04:00.274Z,100737.34
2022-10-21T20:06:29.878Z,100741.25
2022-10-21T20:08:58.674Z,100741.75
2022-10-21T20:11:26.474Z,100735.97
2022-10-21T20:13:53.365Z,100744.81
2022-10-21T20:16:23.270Z,100745.31
2022-10-21T20:18:50.499Z,100742.75
2022-10-21T20:21:17.794Z,100745.97
2022-10-21T20:23:44.362Z,100752.59
2022-10-21T20:26:11.235Z,100754.63
2022-10-21T20:28:38.176Z,100750.69
2022-10-21T20:31:08.016Z,100757.66
2022-10-21T20:33:38.438Z,100754.72
2022-10-21T20:36:08.979Z,100762.53
2022-10-21T20:38:35.525Z,100763.88
2022-10-21T20:41:07.128Z,100769.81
2022-10-21T20:43:38.587Z,100767.50
2022-10-21T20:46:11.722Z,100772.59
2022-10-21T20:48:43.427Z,100780.22
2022-10-21T20:51:15.656Z,100781.41
2022-10-21T20:53:50.416Z,100782.91
2022-10-21T20:56:17.811Z,100779.81
2022-10-21T20:58:44.279Z,100779.44
2022-10-21T21:01:20.747Z,100784.34
2022-10-21T21:03:52.308Z,100787.38
2022-10-21T21:06:19.548Z,100792.97
2022-10-21T21:08:53.334Z,100785.13
2022-10-21T21:11:25.156Z,100790.75
2022-10-21T21:13:51.645Z,100794.47
2022-10-21T21:16:21.131Z,100793.94
2022-10-21T21:18:56.470Z,100792.22
2022-10-21T21:21:23.910Z,100792.22
2022-10-21T21:23:50.678Z,100792.91
2022-10-21T21:26:20.930Z,100786.94
2022-10-21T21:28:48.547Z,100789.81
2022-10-21T21:31:15.126Z,100793.56
2022-10-21T21:33:42.901Z,100792.72
2022-10-21T21:36:11.586Z,100790.00
2022-10-21T21:38:38.320Z,100796.59
2022-10-21T21:41:08.082Z,100783.00
2022-10-21T21:43:36.470Z,100790.47
2022-10-21T21:46:03.572Z,100804.22
2022-10-21T21:48:33.634Z,100797.91
2022-10-21T21:51:10.226Z,100795.19
2022-10-21T21:53:37.513Z,100794.34
2022-10-21T21:56:05.978Z,100797.91
2022-10-21T21:58:32.503Z,100798.94
2022-10-21T22:01:15.452Z,100797.91
2022-10-21T22:03:42.634Z,100799.63
2022-10-21T22:06:10.545Z,100792.50
2022-10-21T22:08:39.959Z,100793.34
2022-10-21T22:11:13.179Z,100786.88
2022-10-21T22:13:40.442Z,100786.72
2022-10-21T22:16:10.932Z,100791.16
2022-10-21T22:18:37.652Z,100786.56
2022-10-21T22:21:06.842Z,100782.00
2022-10-21T22:23:33.688Z,100786.41
2022-10-21T22:26:00.425Z,100776.56
2022-10-21T22:28:27.314Z,100776.56
2022-10-21T22:31:09.207Z,100774.84
2022-10-21T22:33:36.402Z,100772.13
2022-10-21T22:36:03.491Z,100770.59
2022-10-21T22:38:29.990Z,100777.03
2022-10-21T22:40:58.640Z,100781.63
2022-10-21T22:43:26.223Z,100771.75
2022-10-21T22:45:55.212Z,100769.03
2022-10-21T22:48:27.844Z,100771.91
2022-10-21T22:50:54.401Z,100778.53
2022-10-21T22:53:21.563Z,100774.94
2022-10-21T22:55:52.364Z,100771.53
2022-10-21T22:58:21.282Z,100770.69
2022-10-21T23:00:48.549Z,100778.16
2022-10-21T23:03:16.396Z,100779.16
2022-10-21T23:05:44.283Z,100769.28
2022-10-21T23:08:11.185Z,100761.47
2022-10-21T23:10:37.812Z,100760.44
2022-10-21T23:13:05.976Z,100757.72
2022-10-21T23:15:36.906Z,100763.16
2022-10-21T23:18:04.204Z,100763.31
2022-10-21T23:20:30.884Z,100754.44
2022-10-21T23:22:57.418Z,100762.75
2022-10-21T23:25:24.777Z,100765.63
2022-10-21T23:27:51.358Z,100770.22
2022-10-21T23:30:18.506Z,100769.34
2022-10-21T23:32:49.704Z,100776.66
2022-10-21T23:35:18.002Z,100779.69
2022-10-21T23:37:44.678Z,100786.13
2022-10-21T23:40:12.450Z,100787.28
2022-10-21T23:42:42.751Z,100779.16
2022-10-21T23:45:13.605Z,100787.44
2022-10-21T23:47:40.365Z,100802.19
2022-10-21T23:50:08.891Z,100794.66
2022-10-21T23:52:36.251Z,100795.25
2022-10-21T23:55:04.219Z,100801.31
2022-10-21T23:57:30.783Z,100806.19
2022-10-21T23:59:57.316Z,100804.66
